Time;durP1;ratioP1;P1;durP2;ratioP2;P2;SDS_P1;SDS_P2;PMS_P1;PMS_P2;Temp;Humidity;BMP_temperature;BMP_pressure;BME280_temperature;BME280_humidity;BME280_pressure;Samples;Min_cycle;Max_cycle;Signal;HPM_P1;HPM_P2
2022/09/16 00:00:04;;;;;;;8.30;7.40;;;;;;;10.52;89.51;99138.95;84759;1331;22606;-72
2022/09/16 00:02:42;;;;;;;9.10;6.90;;;;;;;10.57;89.62;99138.51;84748;1328;25438;-72
2022/09/16 00:04:53;;;;;;;12.20;8.10;;;;;;;10.62;89.67;99143.45;84763;1328;25355;-70
2022/09/16 00:07:04;;;;;;;10.10;7.10;;;;;;;10.67;89.76;99139.02;84692;1330;22586;-70
2022/09/16 00:09:14;;;;;;;10.70;8.40;;;;;;;10.71;89.63;99146.11;84762;1329;22823;-70
2022/09/16 00:11:23;;;;;;;14.50;8.70;;;;;;;10.74;89.59;99141.71;84678;1332;22617;-69
2022/09/16 00:13:32;;;;;;;12.90;8.00;;;;;;;10.77;89.66;99140.82;84676;1330;24251;-69
2022/09/16 00:15:43;;;;;;;12.10;8.30;;;;;;;10.81;89.65;99141.48;84701;1332;22741;-70
2022/09/16 00:17:52;;;;;;;10.00;7.60;;;;;;;10.84;89.89;99141.64;84694;1331;22591;-71
2022/09/16 00:20:01;;;;;;;11.90;7.50;;;;;;;10.88;89.95;99141.42;84693;1332;23991;-71
2022/09/16 00:22:14;;;;;;;16.10;7.10;;;;;;;10.91;89.70;99143.35;84787;1327;24242;-70
2022/09/16 00:24:24;;;;;;;8.30;7.50;;;;;;;10.94;89.76;99145.80;84620;1333;22701;-71
2022/09/16 00:26:37;;;;;;;7.50;5.70;;;;;;;10.94;89.77;99141.42;84608;1330;22587;-70
2022/09/16 00:28:51;;;;;;;15.10;7.60;;;;;;;10.94;89.47;99141.58;84560;1334;24286;-70
2022/09/16 00:31:03;;;;;;;12.30;7.10;;;;;;;10.92;89.26;99146.39;84597;1334;24351;-70
2022/09/16 00:33:11;;;;;;;10.60;5.90;;;;;;;10.90;89.17;99149.88;84625;1333;25382;-70
2022/09/16 00:35:25;;;;;;;12.50;6.40;;;;;;;10.86;89.24;99155.33;84669;1330;22621;-69
2022/09/16 00:37:36;;;;;;;9.50;6.50;;;;;;;10.83;89.22;99154.95;84600;1333;22586;-70
2022/09/16 00:39:48;;;;;;;9.60;6.40;;;;;;;10.81;89.27;99157.15;84614;1331;22609;-68
2022/09/16 00:41:57;;;;;;;10.20;6.70;;;;;;;10.78;89.28;99155.61;84632;1333;22627;-70
2022/09/16 00:44:08;;;;;;;7.20;6.10;;;;;;;10.75;89.39;99152.11;84633;1331;22645;-71
2022/09/16 00:46:16;;;;;;;7.80;6.90;;;;;;;10.73;89.39;99157.30;84620;1333;22719;-70
2022/09/16 00:48:30;;;;;;;7.30;6.50;;;;;;;10.70;89.37;99150.88;84654;1330;22888;-68
2022/09/16 00:50:41;;;;;;;8.80;7.30;;;;;;;10.69;89.68;99151.09;84632;1333;22887;-70
2022/09/16 00:52:51;;;;;;;9.00;6.10;;;;;;;10.69;89.70;99154.39;84613;1329;24271;-69
2022/09/16 00:55:00;;;;;;;10.00;6.80;;;;;;;10.70;89.68;99160.23;84620;1330;23990;-69
2022/09/16 00:57:09;;;;;;;9.00;6.50;;;;;;;10.70;89.86;99158.33;84661;1329;24236;-70
2022/09/16 00:59:19;;;;;;;9.60;6.90;;;;;;;10.71;90.09;99160.55;84612;1332;22598;-70
2022/09/16 01:01:28;;;;;;;7.50;6.70;;;;;;;10.73;89.97;99162.88;84630;1333;22649;-68
2022/09/16 01:03:41;;;;;;;7.20;6.40;;;;;;;10.73;90.00;99166.68;84652;1333;25522;-70
2022/09/16 01:05:53;;;;;;;9.60;7.50;;;;;;;10.76;89.88;99161.15;84574;1331;23044;-71
2022/09/16 01:08:04;;;;;;;7.10;6.40;;;;;;;10.77;90.13;99157.40;84613;1330;23957;-70
2022/09/16 01:10:13;;;;;;;7.70;6.20;;;;;;;10.79;90.22;99156.95;84642;1330;22646;-70
2022/09/16 01:12:24;;;;;;;10.70;6.00;;;;;;;10.80;90.23;99151.27;84630;1333;25451;-68
2022/09/16 01:14:55;;;;;;;8.30;5.90;;;;;;;10.81;90.10;99152.44;84619;1330;22604;-69
2022/09/16 01:17:16;;;;;;;8.90;6.50;;;;;;;10.82;90.20;99155.90;84543;1327;22584;-70
2022/09/16 01:19:42;;;;;;;7.80;5.70;;;;;;;10.82;89.97;99159.21;84646;1329;23908;-70
2022/09/16 01:21:53;;;;;;;10.70;6.40;;;;;;;10.81;90.00;99155.77;84585;1334;22623;-69
2022/09/16 01:24:33;;;;;;;6.70;6.00;;;;;;;10.81;89.98;99163.66;84636;1331;24278;-69
2022/09/16 01:27:30;;;;;;;8.80;5.90;;;;;;;10.78;89.87;99166.59;84588;1335;22925;-69
2022/09/16 01:30:06;;;;;;;7.60;6.00;;;;;;;10.73;89.76;99176.83;84628;1330;25454;-67
2022/09/16 01:32:19;;;;;;;7.50;5.90;;;;;;;10.70;89.69;99177.02;84649;1333;24251;-69
2022/09/16 01:34:38;;;;;;;9.20;5.50;;;;;;;10.66;89.70;99174.43;84617;1330;22740;-69
2022/09/16 01:36:51;;;;;;;8.00;6.10;;;;;;;10.63;89.70;99168.88;84642;1330;22567;-67
2022/09/16 01:39:13;;;;;;;6.80;5.70;;;;;;;10.59;89.76;99166.64;84613;1333;23957;-69
2022/09/16 01:41:28;;;;;;;9.10;6.30;;;;;;;10.57;89.82;99161.35;84567;1327;22706;-68
2022/09/16 01:43:44;;;;;;;6.80;5.40;;;;;;;10.56;90.04;99161.39;84611;1333;23951;-70
2022/09/16 01:45:56;;;;;;;12.40;6.50;;;;;;;10.57;90.22;99162.73;84572;1327;22827;-69
2022/09/16 01:48:13;;;;;;;7.20;6.10;;;;;;;10.57;90.33;99163.08;84533;1335;25520;-67
2022/09/16 01:50:25;;;;;;;6.50;5.80;;;;;;;10.61;90.45;99169.38;84650;1322;22601;-69
2022/09/16 01:52:54;;;;;;;6.40;5.80;;;;;;;10.63;90.62;99168.34;84617;1330;22737;-70
2022/09/16 01:55:04;;;;;;;8.80;6.00;;;;;;;10.67;90.87;99169.69;84626;1330;22631;-67
2022/09/16 01:57:19;;;;;;;10.10;5.80;;;;;;;10.71;90.89;99173.14;84642;1332;23895;-69
2022/09/16 01:59:32;;;;;;;6.70;6.10;;;;;;;10.75;90.85;99173.91;84593;1334;25300;-68
2022/09/16 02:01:44;;;;;;;10.10;6.30;;;;;;;10.80;90.85;99179.08;84601;1331;25261;-68
2022/09/16 02:03:59;;;;;;;6.10;5.30;;;;;;;10.83;90.82;99179.55;84583;1333;22615;-70
2022/09/16 02:06:13;;;;;;;8.70;5.50;;;;;;;10.87;90.85;99181.11;84612;1333;24123;-68
2022/09/16 02:08:26;;;;;;;6.30;5.70;;;;;;;10.89;90.93;99182.70;84618;1331;22592;-68
2022/09/16 02:10:38;;;;;;;6.70;5.20;;;;;;;10.92;90.83;99179.92;84645;1333;22588;-70
2022/09/16 02:12:47;;;;;;;7.20;5.60;;;;;;;10.94;90.64;99174.94;84634;1331;25435;-67
2022/09/16 02:14:57;;;;;;;9.30;5.70;;;;;;;10.97;90.63;99179.11;84651;1333;22918;-70
2022/09/16 02:17:12;;;;;;;6.30;5.30;;;;;;;10.99;90.60;99181.45;84638;1329;24238;-70
2022/09/16 02:19:24;;;;;;;6.60;4.90;;;;;;;10.99;90.52;99180.55;84649;1332;25299;-72
2022/09/16 02:21:33;;;;;;;7.10;5.00;;;;;;;11.01;90.42;99184.42;84639;1329;23940;-70
2022/09/16 02:23:45;;;;;;;7.80;5.00;;;;;;;11.02;90.47;99185.95;84549;1333;23961;-70
2022/09/16 02:25:56;;;;;;;4.90;4.40;;;;;;;11.03;90.35;99185.39;84637;1329;22836;-70
2022/09/16 02:28:12;;;;;;;5.60;4.50;;;;;;;11.02;90.20;99186.64;84638;1333;22593;-70
2022/09/16 02:30:22;;;;;;;6.10;4.90;;;;;;;11.00;89.94;99183.80;84569;1333;25439;-71
2022/09/16 02:32:33;;;;;;;4.80;4.30;;;;;;;10.98;89.97;99182.90;84634;1333;22588;-69
2022/09/16 02:34:49;;;;;;;8.50;4.40;;;;;;;10.93;89.90;99182.98;84592;1330;23902;-70
2022/09/16 02:37:01;;;;;;;9.30;4.90;;;;;;;10.92;90.14;99182.56;84628;1330;22644;-70
2022/09/16 02:39:11;;;;;;;6.10;4.70;;;;;;;10.91;90.21;99176.88;84642;1330;22593;-68
2022/09/16 02:41:20;;;;;;;4.50;4.10;;;;;;;10.90;90.20;99176.22;84551;1331;25474;-71
2022/09/16 02:43:32;;;;;;;7.50;4.60;;;;;;;10.90;90.20;99176.93;84625;1330;22638;-71
2022/09/16 02:46:01;;;;;;;5.20;4.40;;;;;;;10.90;90.24;99175.52;84664;1333;22654;-69
2022/09/16 02:48:15;;;;;;;7.30;4.00;;;;;;;10.91;90.43;99175.09;84574;1330;24334;-71
2022/09/16 02:50:27;;;;;;;8.80;4.60;;;;;;;10.94;90.66;99174.23;84676;1329;25548;-72
2022/09/16 02:52:43;;;;;;;8.20;4.80;;;;;;;10.95;90.58;99167.89;84639;1333;25316;-70
2022/09/16 02:55:00;;;;;;;9.90;5.30;;;;;;;10.98;90.57;99171.73;84628;1331;22603;-70
2022/09/16 02:57:11;;;;;;;5.10;4.50;;;;;;;11.01;90.52;99174.18;84651;1331;23079;-72
2022/09/16 02:59:33;;;;;;;7.70;4.80;;;;;;;11.03;90.39;99170.36;84587;1330;22606;-71
2022/09/16 03:01:47;;;;;;;4.50;4.10;;;;;;;11.05;90.36;99169.58;84590;1330;22654;-71
2022/09/16 03:03:58;;;;;;;4.20;3.80;;;;;;;11.06;90.38;99169.85;84565;1330;25417;-71
2022/09/16 03:06:23;;;;;;;8.70;4.50;;;;;;;11.05;90.18;99170.75;84562;1330;22671;-69
2022/09/16 03:08:32;;;;;;;7.20;4.40;;;;;;;11.03;90.02;99170.55;84624;1329;22628;-70
2022/09/16 03:10:44;;;;;;;6.40;4.80;;;;;;;10.99;89.89;99168.16;84679;1329;22837;-72
2022/09/16 03:13:01;;;;;;;5.10;4.20;;;;;;;10.96;89.83;99172.38;84586;1334;22715;-71
2022/09/16 03:15:41;;;;;;;9.00;5.00;;;;;;;10.90;89.60;99175.33;84622;1330;24499;-71
2022/09/16 03:18:35;;;;;;;7.20;3.90;;;;;;;10.82;89.67;99174.36;84589;1329;22557;-71
2022/09/16 03:20:51;;;;;;;6.80;4.60;;;;;;;10.76;89.75;99183.10;84615;1333;24409;-69
2022/09/16 03:23:08;;;;;;;6.40;4.70;;;;;;;10.72;89.87;99186.66;84605;1330;22873;-72
2022/09/16 03:25:28;;;;;;;7.70;5.10;;;;;;;10.68;89.97;99184.46;84610;1331;22858;-72
2022/09/16 03:27:42;;;;;;;5.30;4.50;;;;;;;10.65;90.11;99178.02;84617;1330;22597;-71
2022/09/16 03:29:54;;;;;;;7.30;5.20;;;;;;;10.62;90.17;99182.55;84650;1329;22617;-71
2022/09/16 03:32:07;;;;;;;9.60;4.70;;;;;;;10.58;90.13;99181.51;84590;1335;22588;-70
2022/09/16 03:34:26;;;;;;;6.80;5.00;;;;;;;10.54;90.22;99179.29;84631;1327;22689;-71
2022/09/16 03:36:38;;;;;;;5.70;5.00;;;;;;;10.50;90.10;99178.13;84702;1327;22642;-69
2022/09/16 03:38:47;;;;;;;5.80;5.00;;;;;;;10.47;90.08;99179.90;84662;1333;22614;-69
2022/09/16 03:40:56;;;;;;;6.60;5.30;;;;;;;10.43;90.23;99184.86;84670;1329;22604;-70
2022/09/16 03:43:13;;;;;;;10.00;4.60;;;;;;;10.39;90.28;99185.91;84637;1326;22587;-71
2022/09/16 03:45:27;;;;;;;6.60;4.80;;;;;;;10.37;90.49;99188.17;84679;1330;22602;-69
2022/09/16 03:47:37;;;;;;;5.50;4.60;;;;;;;10.33;90.40;99196.35;84634;1328;22707;-69
2022/09/16 03:49:51;;;;;;;7.60;5.20;;;;;;;10.30;90.46;99199.69;84641;1330;24332;-69
2022/09/16 03:52:01;;;;;;;8.50;4.90;;;;;;;10.25;90.45;99200.09;84636;1329;22837;-71
2022/09/16 03:54:10;;;;;;;5.80;5.00;;;;;;;10.23;90.70;99198.83;84652;1325;24083;-71
2022/09/16 03:56:19;;;;;;;7.50;5.10;;;;;;;10.20;90.54;99195.86;84624;1330;23900;-70
2022/09/16 03:58:33;;;;;;;7.00;5.10;;;;;;;10.17;90.63;99193.23;84611;1330;22597;-69
2022/09/16 04:00:41;;;;;;;6.80;5.70;;;;;;;10.14;90.64;99198.24;84632;1329;23052;-69
2022/09/16 04:02:51;;;;;;;7.90;5.20;;;;;;;10.11;90.78;99202.43;84629;1330;23966;-69
2022/09/16 04:05:00;;;;;;;8.60;6.20;;;;;;;10.07;90.96;99201.60;84635;1330;26729;-69
2022/09/16 04:07:09;;;;;;;9.00;5.60;;;;;;;10.03;90.77;99198.52;84574;1330;22610;-70
2022/09/16 04:09:18;;;;;;;8.30;5.70;;;;;;;10.00;91.02;99202.33;84633;1330;22883;-68
2022/09/16 04:11:33;;;;;;;7.00;5.00;;;;;;;9.97;90.96;99200.56;84596;1329;25655;-70
2022/09/16 04:13:41;;;;;;;7.50;5.20;;;;;;;9.96;91.19;99207.11;84573;1330;22621;-71
2022/09/16 04:15:50;;;;;;;8.00;5.70;;;;;;;9.93;91.15;99209.13;84640;1329;22622;-71
2022/09/16 04:18:02;;;;;;;11.70;5.40;;;;;;;9.92;91.28;99210.27;84567;1329;24246;-72
2022/09/16 04:20:15;;;;;;;7.90;5.70;;;;;;;9.90;91.52;99208.45;84572;1334;22643;-71
2022/09/16 04:22:28;;;;;;;8.60;6.10;;;;;;;9.91;91.71;99210.86;84650;1329;23366;-70
2022/09/16 04:24:40;;;;;;;7.70;5.60;;;;;;;9.93;91.90;99213.00;84646;1330;23837;-69
2022/09/16 04:26:55;;;;;;;8.30;6.50;;;;;;;9.95;91.85;99212.88;84654;1330;22861;-70
2022/09/16 04:29:08;;;;;;;7.60;5.90;;;;;;;9.98;92.08;99215.52;84559;1330;24362;-68
2022/09/16 04:31:25;;;;;;;10.10;5.70;;;;;;;10.01;92.37;99209.41;84652;1329;25442;-68
2022/09/16 04:33:36;;;;;;;10.20;6.20;;;;;;;10.04;92.34;99209.25;84617;1329;22629;-70
2022/09/16 04:35:45;;;;;;;7.70;6.00;;;;;;;10.05;92.34;99205.02;84668;1330;22600;-69
2022/09/16 04:37:57;;;;;;;10.00;6.20;;;;;;;10.06;92.21;99201.84;84642;1330;22603;-70
2022/09/16 04:40:10;;;;;;;12.00;6.40;;;;;;;10.07;92.42;99198.48;84551;1332;22628;-69
2022/09/16 04:42:19;;;;;;;11.40;6.10;;;;;;;10.07;92.25;99203.19;84642;1330;23962;-70
2022/09/16 04:44:30;;;;;;;9.10;5.80;;;;;;;10.08;92.25;99209.23;84624;1330;22674;-70
2022/09/16 04:46:42;;;;;;;6.20;5.60;;;;;;;10.08;92.31;99215.32;84625;1329;24021;-69
2022/09/16 04:48:53;;;;;;;8.10;6.00;;;;;;;10.09;92.31;99218.03;84566;1334;22618;-68
2022/09/16 04:51:09;;;;;;;7.90;7.10;;;;;;;10.10;92.31;99215.90;84616;1330;22612;-71
2022/09/16 04:53:19;;;;;;;10.60;6.70;;;;;;;10.12;92.43;99217.91;84630;1325;25929;-70
2022/09/16 04:55:32;;;;;;;7.20;5.90;;;;;;;10.12;92.52;99218.79;84624;1329;22576;-71
2022/09/16 04:57:42;;;;;;;11.70;6.70;;;;;;;10.11;92.55;99220.75;84615;1328;22753;-70
2022/09/16 04:59:50;;;;;;;10.10;6.40;;;;;;;10.10;92.64;99219.71;84634;1330;22552;-70
2022/09/16 05:02:03;;;;;;;9.20;6.00;;;;;;;10.12;92.66;99221.17;84622;1330;25288;-72
2022/09/16 05:04:21;;;;;;;7.10;5.70;;;;;;;10.18;92.91;99224.73;84646;1329;22653;-70
2022/09/16 05:06:31;;;;;;;8.20;6.20;;;;;;;10.24;93.29;99226.83;84661;1321;22808;-71
2022/09/16 05:08:40;;;;;;;9.00;6.50;;;;;;;10.35;93.40;99226.56;84587;1331;23794;-69
2022/09/16 05:10:54;;;;;;;8.20;5.80;;;;;;;10.52;93.60;99224.77;84627;1330;22683;-70
2022/09/16 05:13:09;;;;;;;7.70;5.60;;;;;;;10.93;94.80;99220.66;84638;1330;25300;-70
2022/09/16 05:15:22;;;;;;;6.40;4.40;;;;;;;11.55;95.72;99218.41;84655;1329;22598;-70
2022/09/16 05:17:32;;;;;;;5.70;3.80;;;;;;;12.01;94.36;99213.17;84567;1331;22636;-72
2022/09/16 05:19:41;;;;;;;7.00;4.20;;;;;;;12.15;92.74;99210.89;84633;1331;22669;-70
2022/09/16 05:21:53;;;;;;;6.60;4.30;;;;;;;12.18;91.35;99212.45;84681;1329;22700;-72
2022/09/16 05:24:07;;;;;;;4.80;4.10;;;;;;;12.17;90.76;99221.06;84580;1329;22773;-72
2022/09/16 05:26:19;;;;;;;5.60;3.90;;;;;;;12.18;90.16;99221.20;84586;1330;24208;-67
2022/09/16 05:28:28;;;;;;;4.00;3.60;;;;;;;12.18;89.69;99217.73;84615;1325;22819;-69
2022/09/16 05:30:39;;;;;;;5.90;3.00;;;;;;;12.17;89.33;99218.45;84655;1330;22895;-70
2022/09/16 05:32:50;;;;;;;7.70;3.50;;;;;;;12.18;89.04;99218.09;84604;1330;22656;-73
2022/09/16 05:34:59;;;;;;;5.50;3.40;;;;;;;12.21;88.62;99224.34;84608;1331;23934;-73
2022/09/16 05:37:07;;;;;;;4.80;3.30;;;;;;;12.26;88.74;99225.93;84265;1330;556465;-71
2022/09/16 05:39:17;;;;;;;3.40;3.10;;;;;;;12.34;88.66;99224.20;84653;1329;25263;-71
2022/09/16 05:41:31;;;;;;;7.70;3.70;;;;;;;12.41;88.34;99226.02;84566;1328;24283;-70
2022/09/16 05:43:40;;;;;;;3.70;3.10;;;;;;;12.48;88.11;99228.23;84632;1321;22844;-72
2022/09/16 05:45:54;;;;;;;3.20;2.90;;;;;;;12.62;88.10;99227.30;84577;1331;22617;-69
2022/09/16 05:48:03;;;;;;;3.90;2.80;;;;;;;13.16;89.03;99225.70;84646;1329;22668;-70
2022/09/16 05:50:21;;;;;;;7.00;3.00;;;;;;;13.53;87.68;99223.40;84641;1329;22699;-70
2022/09/16 05:52:41;;;;;;;7.60;3.30;;;;;;;13.84;87.58;99225.48;84572;1330;24231;-70
2022/09/16 05:54:51;;;;;;;5.50;3.10;;;;;;;14.14;85.64;99222.27;84551;1327;22611;-72
2022/09/16 05:57:00;;;;;;;3.60;2.50;;;;;;;14.36;84.84;99219.66;84623;1327;22605;-71
2022/09/16 05:59:10;;;;;;;5.90;3.00;;;;;;;14.59;83.94;99219.09;84615;1330;22757;-72
2022/09/16 06:01:25;;;;;;;3.70;2.70;;;;;;;14.67;82.69;99212.48;84628;1330;22715;-68
2022/09/16 06:03:36;;;;;;;3.60;2.30;;;;;;;14.72;81.85;99215.28;84648;1329;25444;-69
2022/09/16 06:05:48;;;;;;;3.30;2.80;;;;;;;14.78;80.90;99217.17;84643;1330;22597;-70
2022/09/16 06:08:03;;;;;;;5.60;2.80;;;;;;;14.89;80.39;99215.98;84635;1329;22550;-70
2022/09/16 06:10:14;;;;;;;4.10;2.40;;;;;;;14.90;79.31;99216.23;84633;1328;24238;-70
2022/09/16 06:12:25;;;;;;;4.80;2.50;;;;;;;14.93;79.29;99214.27;84634;1330;24202;-70
2022/09/16 06:14:32;;;;;;;;;;;;;;;14.88;78.18;99212.87;84552;1330;23053;-70
2022/09/16 06:16:41;;;;;;;2.80;2.60;;;;;;;14.77;77.64;99216.53;84639;1324;22794;-70
2022/09/16 06:18:50;;;;;;;4.90;2.80;;;;;;;14.68;77.33;99216.30;84558;1335;22810;-69
2022/09/16 06:21:02;;;;;;;4.50;2.00;;;;;;;14.63;77.54;99216.30;84664;1330;24116;-71
2022/09/16 06:23:11;;;;;;;3.80;2.10;;;;;;;14.63;77.47;99217.03;84672;1330;22689;-71
2022/09/16 06:25:22;;;;;;;3.10;2.40;;;;;;;14.62;77.49;99217.04;84633;1329;24258;-70
2022/09/16 06:27:37;;;;;;;5.00;2.50;;;;;;;14.64;77.32;99217.14;84628;1330;22610;-70
2022/09/16 06:29:47;;;;;;;6.20;2.20;;;;;;;14.65;77.15;99216.71;84640;1330;25590;-71
2022/09/16 06:31:57;;;;;;;6.10;2.30;;;;;;;14.65;76.36;99218.80;84644;1330;22603;-72
2022/09/16 06:34:07;;;;;;;6.20;2.60;;;;;;;14.67;76.41;99216.36;84561;1333;23925;-72
2022/09/16 06:36:19;;;;;;;10.70;3.20;;;;;;;14.77;76.15;99216.89;84582;1328;22738;-70
2022/09/16 06:38:28;;;;;;;2.50;2.10;;;;;;;14.85;76.17;99217.02;84644;1330;22790;-69
2022/09/16 06:40:37;;;;;;;4.70;2.00;;;;;;;14.92;75.99;99216.64;84649;1329;22858;-70
2022/09/16 06:42:46;;;;;;;5.10;2.10;;;;;;;15.03;76.18;99212.67;84637;1329;22613;-71
2022/09/16 06:44:55;;;;;;;7.20;3.40;;;;;;;15.13;75.64;99215.61;84624;1327;22590;-71
2022/09/16 06:47:07;;;;;;;4.60;2.60;;;;;;;15.16;75.44;99214.11;84591;1329;22686;-70
2022/09/16 06:49:18;;;;;;;4.70;2.00;;;;;;;15.26;75.51;99204.94;84563;1327;22632;-71
2022/09/16 06:51:30;;;;;;;3.50;2.00;;;;;;;15.38;74.86;99204.55;84620;1328;22598;-68
2022/09/16 06:53:42;;;;;;;11.30;1.60;;;;;;;15.44;74.54;99199.92;84618;1321;22668;-68
2022/09/16 06:55:56;;;;;;;5.30;2.20;;;;;;;15.50;74.53;99203.80;84620;1328;22624;-73
2022/09/16 06:58:07;;;;;;;5.30;1.80;;;;;;;15.57;74.46;99207.20;84610;1331;23108;-70
2022/09/16 07:00:25;;;;;;;4.00;1.90;;;;;;;15.61;73.96;99210.21;84612;1331;22809;-69
2022/09/16 07:02:37;;;;;;;3.90;1.80;;;;;;;15.61;73.40;99213.20;84630;1329;23883;-68
2022/09/16 07:04:50;;;;;;;3.80;2.20;;;;;;;15.62;73.35;99214.52;84622;1330;22720;-69
2022/09/16 07:07:01;;;;;;;2.60;2.00;;;;;;;15.65;72.67;99220.46;84635;1329;25587;-70
2022/09/16 07:09:10;;;;;;;3.20;1.90;;;;;;;15.65;72.63;99218.36;84557;1332;24126;-69
2022/09/16 07:11:22;;;;;;;6.30;1.80;;;;;;;15.65;72.26;99220.41;84646;1333;22739;-70
2022/09/16 07:13:31;;;;;;;3.70;1.90;;;;;;;15.68;72.21;99219.88;84552;1330;22597;-70
2022/09/16 07:15:40;;;;;;;4.90;2.00;;;;;;;15.69;71.54;99218.24;84617;1330;25489;-70
2022/09/16 07:17:48;;;;;;;8.70;2.00;;;;;;;15.72;71.74;99221.51;84607;1329;22597;-70
2022/09/16 07:19:57;;;;;;;5.00;1.90;;;;;;;15.78;71.91;99223.48;84612;1330;24320;-70
2022/09/16 07:22:06;;;;;;;5.90;1.50;;;;;;;15.87;71.80;99222.92;84633;1330;22729;-72
2022/09/16 07:24:16;;;;;;;5.70;1.50;;;;;;;16.05;71.45;99222.61;84624;1329;22588;-71
2022/09/16 07:26:28;;;;;;;4.60;1.30;;;;;;;16.32;71.21;99221.14;84631;1325;22583;-70
2022/09/16 07:28:42;;;;;;;5.00;1.60;;;;;;;16.56;70.70;99224.63;84663;1330;22702;-71
2022/09/16 07:30:54;;;;;;;6.30;2.30;;;;;;;16.72;69.39;99230.75;84666;1330;24231;-70
2022/09/16 07:33:05;;;;;;;4.80;1.60;;;;;;;16.85;68.93;99223.54;84648;1331;25605;-70
2022/09/16 07:35:14;;;;;;;6.40;1.40;;;;;;;16.99;68.86;99226.43;84569;1334;25470;-70
2022/09/16 07:37:28;;;;;;;7.50;1.30;;;;;;;17.06;66.32;99225.52;84625;1321;22606;-70
2022/09/16 07:39:40;;;;;;;3.80;1.20;;;;;;;17.05;65.33;99233.17;84602;1321;22655;-71
2022/09/16 07:41:49;;;;;;;3.80;1.30;;;;;;;17.23;65.44;99233.42;84596;1330;25051;-70
2022/09/16 07:44:00;;;;;;;3.40;1.50;;;;;;;17.45;64.78;99229.48;84624;1325;22604;-70
2022/09/16 07:46:10;;;;;;;7.40;1.70;;;;;;;17.92;64.12;99230.23;84611;1329;22610;-70
2022/09/16 07:48:20;;;;;;;5.10;1.20;;;;;;;18.35;62.53;99228.38;84615;1330;22626;-69
2022/09/16 07:50:29;;;;;;;6.70;1.50;;;;;;;18.81;60.69;99225.36;84596;1330;24070;-70
2022/09/16 07:52:40;;;;;;;4.70;1.20;;;;;;;19.35;60.41;99226.80;84608;1330;22665;-71
2022/09/16 07:54:51;;;;;;;5.30;1.50;;;;;;;19.81;56.52;99224.98;84560;1330;24197;-71
2022/09/16 07:57:03;;;;;;;6.50;1.30;;;;;;;20.49;57.71;99225.76;84644;1321;22843;-69
2022/09/16 07:59:18;;;;;;;5.30;1.00;;;;;;;21.50;55.27;99216.77;84606;1330;24238;-69
2022/09/16 08:01:30;;;;;;;4.20;1.70;;;;;;;22.39;51.10;99217.06;84672;1329;22615;-70
2022/09/16 08:03:40;;;;;;;6.00;1.20;;;;;;;23.16;50.22;99216.03;84627;1330;25119;-71
2022/09/16 08:05:49;;;;;;;;;;;;;;;23.57;47.99;99218.98;84655;1325;22609;-70
2022/09/16 08:07:58;;;;;;;9.10;1.10;;;;;;;23.85;47.22;99227.28;84553;1324;22592;-70
2022/09/16 08:10:12;;;;;;;5.10;1.20;;;;;;;24.21;45.98;99231.60;84564;1333;22638;-70
2022/09/16 08:12:23;;;;;;;5.40;1.20;;;;;;;24.16;44.71;99230.35;84630;1327;22630;-71
2022/09/16 08:14:35;;;;;;;3.60;1.40;;;;;;;24.69;45.21;99226.34;84628;1329;23780;-72
2022/09/16 08:16:45;;;;;;;7.00;1.70;;;;;;;25.39;43.50;99219.73;84561;1327;22857;-70
2022/09/16 08:18:56;;;;;;;5.90;1.40;;;;;;;26.02;41.78;99219.34;84621;1329;22586;-70
2022/09/16 08:21:13;;;;;;;4.80;1.50;;;;;;;26.25;39.93;99220.48;84569;1330;22610;-70
2022/09/16 08:23:23;;;;;;;6.90;1.60;;;;;;;26.46;38.64;99220.59;84616;1325;22693;-69
2022/09/16 08:25:35;;;;;;;4.30;1.20;;;;;;;26.41;37.84;99221.52;84635;1325;22718;-72
2022/09/16 08:27:49;;;;;;;3.90;1.30;;;;;;;26.41;37.34;99218.54;84610;1330;23037;-71
2022/09/16 08:30:01;;;;;;;3.60;1.40;;;;;;;26.62;37.30;99216.64;84622;1330;22601;-70
2022/09/16 08:32:10;;;;;;;4.40;1.40;;;;;;;26.98;37.31;99217.55;84635;1330;22708;-69
2022/09/16 08:34:19;;;;;;;6.00;1.40;;;;;;;27.15;36.73;99212.19;84616;1330;22841;-69
2022/09/16 08:36:28;;;;;;;4.30;1.10;;;;;;;26.75;36.21;99212.40;84593;1329;22691;-71
2022/09/16 08:38:37;;;;;;;4.10;1.30;;;;;;;26.35;36.33;99212.36;84603;1333;25272;-71
2022/09/16 08:40:48;;;;;;;4.70;1.20;;;;;;;25.93;35.58;99210.99;84629;1329;24243;-71
2022/09/16 08:43:04;;;;;;;3.60;1.50;;;;;;;25.51;36.31;99213.21;84581;1330;22575;-71
2022/09/16 08:45:25;;;;;;;4.60;1.60;;;;;;;25.37;36.84;99214.78;84647;1330;22681;-70
2022/09/16 08:47:43;;;;;;;7.90;1.30;;;;;;;25.25;36.48;99211.56;84626;1330;22630;-71
2022/09/16 08:49:53;;;;;;;5.00;1.30;;;;;;;24.95;37.03;99214.92;84617;1330;25296;-72
2022/09/16 08:52:05;;;;;;;8.80;1.50;;;;;;;24.33;36.77;99222.03;84589;1329;24276;-71
2022/09/16 08:54:27;;;;;;;5.20;1.50;;;;;;;24.04;37.82;99222.66;84628;1330;22661;-71
2022/09/16 08:56:39;;;;;;;7.40;1.20;;;;;;;24.26;38.82;99221.23;84655;1329;22607;-71
2022/09/16 08:58:54;;;;;;;6.10;1.40;;;;;;;24.62;38.83;99213.61;84641;1329;23929;-71
2022/09/16 09:01:14;;;;;;;4.30;1.30;;;;;;;24.98;38.47;99217.58;84672;1329;22733;-71
2022/09/16 09:03:33;;;;;;;4.60;1.10;;;;;;;25.28;37.72;99215.11;84551;1332;24071;-72
2022/09/16 09:05:53;;;;;;;6.10;1.30;;;;;;;25.69;36.77;99214.54;84564;1330;24245;-70
2022/09/16 09:08:17;;;;;;;4.30;1.20;;;;;;;25.90;36.19;99217.73;84637;1329;22606;-70
2022/09/16 09:10:31;;;;;;;8.80;1.50;;;;;;;25.64;35.45;99214.31;84670;1329;25276;-71
2022/09/16 09:12:43;;;;;;;4.30;1.20;;;;;;;25.75;34.97;99215.29;84622;1330;22604;-71
2022/09/16 09:15:05;;;;;;;2.80;1.10;;;;;;;25.75;34.60;99218.88;84562;1331;22607;-72
2022/09/16 09:17:32;;;;;;;6.60;1.80;;;;;;;25.88;34.63;99216.90;84600;1331;22596;-70
2022/09/16 09:19:56;;;;;;;5.30;1.20;;;;;;;26.06;33.79;99218.90;84601;1328;22609;-70
2022/09/16 09:22:13;;;;;;;3.60;1.20;;;;;;;25.71;33.69;99223.98;84630;1330;22798;-72
2022/09/16 09:24:47;;;;;;;2.60;1.00;;;;;;;25.68;34.33;99217.89;84615;1329;25963;-72
2022/09/16 09:27:02;;;;;;;5.00;1.90;;;;;;;25.21;34.55;99222.19;84642;1329;23931;-70
2022/09/16 09:29:36;;;;;;;5.70;1.80;;;;;;;24.76;35.15;99230.32;84604;1333;22608;-70
2022/09/16 09:31:53;;;;;;;6.00;1.80;;;;;;;24.69;35.54;99225.38;84601;1333;22679;-70
2022/09/16 09:34:06;;;;;;;4.40;1.00;;;;;;;24.72;35.37;99222.51;84616;1331;22687;-71
2022/09/16 09:39:21;;;;;;;6.00;1.50;;;;;;;24.88;34.36;99227.98;81927;1369;544949;-73
2022/09/16 09:41:32;;;;;;;4.50;1.60;;;;;;;24.36;35.81;99229.71;84499;1337;22593;-73
2022/09/16 09:43:46;;;;;;;9.70;2.50;;;;;;;24.21;36.71;99229.23;84491;1333;25434;-73
2022/09/16 09:46:04;;;;;;;3.90;1.30;;;;;;;24.30;37.03;99225.39;84521;1334;22600;-74
2022/09/16 09:48:19;;;;;;;6.20;1.20;;;;;;;24.40;36.50;99217.55;84571;1336;22602;-72
2022/09/16 09:50:31;;;;;;;6.90;1.40;;;;;;;24.27;36.28;99222.70;84642;1328;22759;-71
2022/09/16 09:52:48;;;;;;;4.30;1.10;;;;;;;23.84;36.58;99221.30;84151;1328;654620;-71
2022/09/16 09:55:18;;;;;;;7.70;1.50;;;;;;;23.30;36.61;99232.92;84630;1330;24199;-71
2022/09/16 09:57:37;;;;;;;2.70;1.30;;;;;;;22.99;37.24;99226.14;84618;1330;22570;-69
2022/09/16 09:59:48;;;;;;;4.20;0.90;;;;;;;22.80;38.11;99226.78;84647;1330;23947;-71
2022/09/16 10:02:07;;;;;;;6.40;1.70;;;;;;;22.57;37.78;99231.73;84671;1330;22833;-74
2022/09/16 10:04:17;;;;;;;3.90;0.90;;;;;;;22.24;38.35;99233.48;84660;1330;24209;-73
2022/09/16 10:06:31;;;;;;;5.60;1.40;;;;;;;21.92;38.80;99233.41;84696;1330;22687;-74
2022/09/16 10:08:44;;;;;;;2.80;0.90;;;;;;;21.71;39.82;99234.53;84631;1326;24234;-71
2022/09/16 10:10:55;;;;;;;5.50;2.20;;;;;;;21.56;40.52;99232.44;84627;1330;24269;-71
2022/09/16 10:13:14;;;;;;;6.90;1.60;;;;;;;21.44;40.45;99235.85;84616;1330;22651;-71
2022/09/16 10:15:33;;;;;;;4.90;1.20;;;;;;;21.39;40.80;99231.39;84629;1330;22583;-70
2022/09/16 10:17:49;;;;;;;6.10;1.20;;;;;;;21.39;41.05;99234.18;84578;1332;22586;-71
2022/09/16 10:20:00;;;;;;;4.20;1.10;;;;;;;21.41;41.58;99232.73;84638;1330;22659;-69
2022/09/16 10:22:24;;;;;;;7.90;1.20;;;;;;;21.38;41.68;99232.19;84703;1330;22593;-74
2022/09/16 10:24:37;;;;;;;3.50;1.30;;;;;;;21.34;41.28;99231.88;84504;1336;24108;-74
2022/09/16 10:26:49;;;;;;;6.00;1.20;;;;;;;21.14;41.36;99233.30;84626;1331;22675;-72
2022/09/16 10:29:14;;;;;;;7.80;1.20;;;;;;;20.90;41.31;99240.56;84596;1330;22768;-71
2022/09/16 10:31:27;;;;;;;2.90;1.10;;;;;;;20.60;41.53;99237.81;84651;1330;22593;-74